Time;durP1;ratioP1;P1;durP2;ratioP2;P2;SDS_P1;SDS_P2;PMS_P1;PMS_P2;Temp;Humidity;BMP_temperature;BMP_pressure;BME280_temperature;BME280_humidity;BME280_pressure;Samples;Min_cycle;Max_cycle;Signal;HPM_P1;HPM_P2
2021/01/09 00:01:59;;;;;;;12.97;8.67;;;1.60;99.90;;;;;;5025833;28;20195;-46
2021/01/09 00:04:24;;;;;;;16.33;9.80;;;1.60;99.90;;;;;;5028878;28;20198;-51
2021/01/09 00:06:50;;;;;;;11.87;7.40;;;1.60;99.90;;;;;;5020011;28;20195;-45
2021/01/09 00:09:15;;;;;;;13.77;7.97;;;1.60;99.90;;;;;;5026808;28;20187;-46
2021/01/09 00:11:41;;;;;;;13.97;8.60;;;1.60;99.90;;;;;;5013680;28;20218;-48
2021/01/09 00:14:06;;;;;;;14.10;8.90;;;1.60;99.90;;;;;;5026689;28;20192;-48
2021/01/09 00:16:32;;;;;;;13.13;8.13;;;1.60;99.90;;;;;;5026964;28;20600;-44
2021/01/09 00:18:57;;;;;;;14.10;9.37;;;1.60;99.90;;;;;;5024653;28;20176;-48
2021/01/09 00:21:23;;;;;;;13.23;8.80;;;1.60;99.90;;;;;;5023441;28;20269;-48
2021/01/09 00:23:49;;;;;;;13.43;8.97;;;1.60;99.90;;;;;;5017778;28;20195;-49
2021/01/09 00:26:14;;;;;;;13.27;8.30;;;1.60;99.90;;;;;;5012525;28;20264;-47
2021/01/09 00:28:39;;;;;;;13.50;8.27;;;1.60;99.90;;;;;;5026653;28;20180;-48
2021/01/09 00:31:08;;;;;;;11.93;8.20;;;1.60;99.90;;;;;;5023108;28;20758;-43
2021/01/09 00:33:33;;;;;;;12.93;8.13;;;1.50;99.90;;;;;;5027580;28;20179;-47
2021/01/09 00:35:59;;;;;;;8.80;6.70;;;1.60;99.90;;;;;;5023058;28;20204;-45
2021/01/09 00:38:25;;;;;;;10.70;7.83;;;1.50;99.90;;;;;;5022373;28;21103;-46
2021/01/09 00:40:50;;;;;;;10.50;7.80;;;1.50;99.90;;;;;;5015799;28;20198;-46
2021/01/09 00:43:16;;;;;;;11.10;7.63;;;1.50;99.90;;;;;;5024341;28;20169;-49
2021/01/09 00:45:42;;;;;;;12.23;7.17;;;1.50;99.90;;;;;;5027915;28;20375;-48
2021/01/09 00:48:07;;;;;;;11.17;7.10;;;1.50;99.90;;;;;;5024205;28;20179;-45
2021/01/09 00:50:33;;;;;;;12.07;8.00;;;1.50;99.90;;;;;;5026714;28;20199;-48
2021/01/09 00:52:58;;;;;;;10.57;6.70;;;1.50;99.90;;;;;;5021456;28;20219;-46
2021/01/09 00:55:24;;;;;;;10.07;7.27;;;1.50;99.90;;;;;;5024347;28;20961;-47
2021/01/09 00:57:49;;;;;;;9.67;6.90;;;1.50;99.90;;;;;;5015577;28;20199;-51
2021/01/09 01:00:15;;;;;;;8.63;6.13;;;1.50;99.90;;;;;;5023242;28;20164;-52
2021/01/09 01:02:41;;;;;;;11.73;7.40;;;1.50;99.90;;;;;;5028868;28;20188;-50
2021/01/09 01:05:07;;;;;;;9.67;5.90;;;1.50;99.90;;;;;;5023887;28;20230;-48
2021/01/09 01:07:35;;;;;;;11.30;7.20;;;1.50;99.90;;;;;;5022609;28;20194;-48
2021/01/09 01:10:02;;;;;;;11.47;6.80;;;1.50;99.90;;;;;;5024575;28;20188;-43
2021/01/09 01:12:28;;;;;;;10.33;6.83;;;1.50;99.90;;;;;;5013907;28;20222;-48
2021/01/09 01:14:53;;;;;;;12.73;7.90;;;1.50;99.90;;;;;;5025457;28;20199;-48
2021/01/09 01:17:19;;;;;;;10.43;6.57;;;1.50;99.90;;;;;;5023320;28;20744;-46
2021/01/09 01:19:44;;;;;;;9.03;6.60;;;1.50;99.90;;;;;;5026319;28;20215;-47
2021/01/09 01:22:10;;;;;;;11.43;7.20;;;1.50;99.90;;;;;;5017414;28;20250;-45
2021/01/09 01:24:35;;;;;;;10.27;7.20;;;1.50;99.90;;;;;;5006707;28;20604;-48
2021/01/09 01:27:01;;;;;;;11.90;7.80;;;1.50;99.90;;;;;;5004364;28;20222;-45
2021/01/09 01:29:26;;;;;;;11.03;7.80;;;1.50;99.90;;;;;;5007605;28;20188;-48
2021/01/09 01:31:52;;;;;;;14.27;8.70;;;1.50;99.90;;;;;;5025912;28;20218;-46
2021/01/09 01:34:17;;;;;;;14.27;8.60;;;1.50;99.90;;;;;;5022955;28;20211;-45
2021/01/09 01:36:49;;;;;;;13.60;8.30;;;1.50;99.90;;;;;;5025661;28;20175;-47
2021/01/09 01:39:15;;;;;;;10.57;7.60;;;1.50;99.90;;;;;;5016640;28;20366;-45
2021/01/09 01:41:41;;;;;;;11.03;7.73;;;1.50;99.90;;;;;;5026302;28;20714;-49
2021/01/09 01:44:06;;;;;;;12.20;7.73;;;1.50;99.90;;;;;;5011464;28;20877;-44
2021/01/09 01:46:32;;;;;;;10.67;6.73;;;1.60;99.90;;;;;;5025091;28;20213;-46
2021/01/09 01:48:57;;;;;;;12.43;8.10;;;1.60;99.90;;;;;;5024368;28;20187;-48
2021/01/09 01:51:23;;;;;;;10.43;7.60;;;1.50;99.90;;;;;;5022746;28;20207;-46
2021/01/09 01:53:49;;;;;;;11.27;7.40;;;1.50;99.90;;;;;;5018510;28;21002;-47
2021/01/09 01:56:15;;;;;;;10.53;7.20;;;1.60;99.90;;;;;;5027132;28;20270;-48
2021/01/09 01:58:40;;;;;;;11.30;7.60;;;1.50;99.90;;;;;;5017406;28;20215;-47
2021/01/09 02:01:08;;;;;;;11.33;7.63;;;1.50;99.90;;;;;;5021179;28;20212;-50
2021/01/09 02:03:35;;;;;;;13.67;8.10;;;1.50;99.90;;;;;;5025492;28;20179;-46
2021/01/09 02:06:07;;;;;;;12.50;7.93;;;1.50;99.90;;;;;;5022248;28;20248;-47
2021/01/09 02:08:44;;;;;;;11.77;7.20;;;1.50;99.90;;;;;;5021268;28;20190;-45
2021/01/09 02:11:19;;;;;;;13.03;7.90;;;1.50;99.90;;;;;;5025830;28;20717;-48
2021/01/09 02:13:51;;;;;;;11.37;7.83;;;1.50;99.90;;;;;;5012541;28;20187;-47
2021/01/09 02:16:17;;;;;;;10.63;7.70;;;1.50;99.90;;;;;;5018787;28;20546;-48
2021/01/09 02:18:44;;;;;;;13.80;7.47;;;1.50;99.90;;;;;;5022777;28;20178;-44
2021/01/09 02:21:30;;;;;;;12.10;8.03;;;1.50;99.90;;;;;;5025809;28;20199;-48
2021/01/09 02:23:55;;;;;;;12.27;7.83;;;1.50;99.90;;;;;;5017012;28;20330;-50
2021/01/09 02:26:21;;;;;;;11.53;7.37;;;1.50;99.90;;;;;;5026048;28;20628;-45
2021/01/09 02:28:47;;;;;;;9.83;7.40;;;1.60;99.90;;;;;;5011609;28;20625;-43
2021/01/09 02:31:14;;;;;;;11.37;8.07;;;1.50;99.90;;;;;;5024992;28;20204;-53
2021/01/09 02:33:40;;;;;;;11.63;7.07;;;1.50;99.90;;;;;;5015211;28;20187;-47
2021/01/09 02:36:07;;;;;;;10.70;7.47;;;1.50;99.90;;;;;;5021514;28;20234;-47
2021/01/09 02:38:32;;;;;;;13.43;7.70;;;1.50;99.90;;;;;;5019803;28;20187;-49
2021/01/09 02:41:01;;;;;;;9.97;7.37;;;1.50;99.90;;;;;;5023405;28;20620;-49
2021/01/09 02:43:27;;;;;;;16.37;8.90;;;1.50;99.90;;;;;;5022192;28;20842;-51
2021/01/09 02:45:52;;;;;;;14.97;8.07;;;1.50;99.90;;;;;;5014324;28;20594;-45
2021/01/09 02:48:18;;;;;;;11.57;7.73;;;1.50;99.90;;;;;;5022166;28;20739;-50
2021/01/09 02:50:43;;;;;;;12.63;8.13;;;1.50;99.90;;;;;;5025815;28;20337;-46
2021/01/09 02:53:08;;;;;;;12.80;8.40;;;1.50;99.90;;;;;;5019595;28;20203;-45
2021/01/09 02:55:34;;;;;;;14.10;8.70;;;1.50;99.90;;;;;;5023719;28;20218;-46
2021/01/09 02:57:59;;;;;;;13.17;8.07;;;1.50;99.90;;;;;;5023592;28;20204;-44
2021/01/09 03:00:25;;;;;;;13.57;8.53;;;1.50;99.90;;;;;;5011399;28;20815;-53
2021/01/09 03:02:50;;;;;;;12.17;7.93;;;1.50;99.90;;;;;;5025582;28;20271;-52
2021/01/09 03:05:16;;;;;;;12.67;7.97;;;1.50;99.90;;;;;;5021883;28;20890;-49
2021/01/09 03:07:41;;;;;;;11.13;7.60;;;1.50;99.90;;;;;;5025482;28;20554;-49
2021/01/09 03:10:07;;;;;;;16.83;8.27;;;1.50;99.90;;;;;;5018436;28;20202;-48
2021/01/09 03:12:33;;;;;;;13.80;8.50;;;1.50;99.90;;;;;;5023922;28;20222;-51
2021/01/09 03:14:58;;;;;;;13.67;7.97;;;1.50;99.90;;;;;;5020038;28;20207;-48
2021/01/09 03:17:25;;;;;;;12.83;8.37;;;1.50;99.90;;;;;;5015641;28;20906;-51
2021/01/09 03:19:50;;;;;;;12.03;8.10;;;1.50;99.90;;;;;;5025650;28;20644;-47
2021/01/09 03:22:16;;;;;;;14.10;8.10;;;1.50;99.90;;;;;;5020926;28;20404;-48
2021/01/09 03:24:41;;;;;;;12.23;8.57;;;1.50;99.90;;;;;;5025157;28;20176;-48
2021/01/09 03:27:07;;;;;;;13.50;8.20;;;1.50;99.90;;;;;;5017674;28;20198;-45
2021/01/09 03:29:32;;;;;;;13.60;8.10;;;1.50;99.90;;;;;;5023676;28;20179;-47
2021/01/09 03:31:58;;;;;;;11.43;7.83;;;1.50;99.90;;;;;;5012140;28;20607;-48
2021/01/09 03:34:23;;;;;;;12.50;8.13;;;1.50;99.90;;;;;;5021744;28;20203;-50
2021/01/09 03:36:49;;;;;;;12.13;7.50;;;1.50;99.90;;;;;;5025053;28;20187;-48
2021/01/09 03:39:14;;;;;;;12.97;7.63;;;1.50;99.90;;;;;;5020424;28;20208;-48
2021/01/09 03:41:39;;;;;;;13.43;7.93;;;1.50;99.90;;;;;;5020381;28;20211;-49
2021/01/09 03:44:05;;;;;;;11.17;7.30;;;1.50;99.90;;;;;;5021312;28;20625;-46
2021/01/09 03:46:31;;;;;;;15.00;8.43;;;1.50;99.90;;;;;;5023173;28;20222;-49
2021/01/09 03:48:56;;;;;;;10.80;7.70;;;1.50;99.90;;;;;;5012038;28;20698;-45
2021/01/09 03:51:21;;;;;;;12.47;7.77;;;1.50;99.90;;;;;;5021467;28;20219;-48
2021/01/09 03:53:47;;;;;;;12.20;8.07;;;1.50;99.90;;;;;;5024365;28;20219;-47
2021/01/09 03:56:12;;;;;;;12.37;8.07;;;1.50;99.90;;;;;;5020522;28;20180;-48
2021/01/09 03:58:38;;;;;;;11.97;7.70;;;1.50;99.90;;;;;;5020808;28;20275;-47
2021/01/09 04:01:03;;;;;;;12.00;7.40;;;1.50;99.90;;;;;;5022078;28;20169;-47
2021/01/09 04:03:29;;;;;;;10.13;7.57;;;1.50;99.90;;;;;;5009442;28;20192;-48
2021/01/09 04:05:56;;;;;;;11.37;7.07;;;1.50;99.90;;;;;;5021762;28;20187;-45
2021/01/09 04:08:21;;;;;;;10.93;7.50;;;1.50;99.90;;;;;;5020384;28;20226;-44
2021/01/09 04:10:47;;;;;;;11.83;7.50;;;1.50;99.90;;;;;;5023020;28;20172;-46
2021/01/09 04:13:12;;;;;;;11.87;7.53;;;1.50;99.90;;;;;;5014414;28;20876;-49
2021/01/09 04:15:38;;;;;;;12.67;8.13;;;1.50;99.90;;;;;;5018385;28;20203;-47
2021/01/09 04:18:03;;;;;;;11.53;8.77;;;1.50;99.90;;;;;;5020789;28;20165;-55
2021/01/09 04:20:29;;;;;;;12.73;7.80;;;1.50;99.90;;;;;;5009190;28;20833;-44
2021/01/09 04:22:54;;;;;;;11.50;7.57;;;1.50;99.90;;;;;;5022345;28;20232;-53
2021/01/09 04:25:20;;;;;;;10.90;7.33;;;1.50;99.90;;;;;;5020171;28;20242;-47
2021/01/09 04:27:45;;;;;;;10.73;6.97;;;1.50;99.90;;;;;;5022617;28;20187;-52
2021/01/09 04:30:11;;;;;;;11.67;7.73;;;1.50;99.90;;;;;;5016927;28;20231;-53
2021/01/09 04:32:37;;;;;;;9.83;6.93;;;1.50;99.90;;;;;;5026499;28;20211;-43
2021/01/09 04:35:03;;;;;;;11.47;7.87;;;1.50;99.90;;;;;;5018359;28;20216;-48
2021/01/09 04:37:29;;;;;;;10.97;7.60;;;1.50;99.90;;;;;;5019818;28;20219;-50
2021/01/09 04:39:54;;;;;;;10.23;6.80;;;1.50;99.90;;;;;;5025607;28;20637;-54
2021/01/09 04:42:19;;;;;;;12.50;7.87;;;1.50;99.90;;;;;;5016395;28;20238;-47
2021/01/09 04:44:45;;;;;;;12.67;8.27;;;1.50;99.90;;;;;;5025188;28;20257;-44
2021/01/09 04:47:12;;;;;;;12.20;8.37;;;1.50;99.90;;;;;;5017257;28;20651;-54
2021/01/09 04:49:38;;;;;;;11.50;7.67;;;1.50;99.90;;;;;;5024984;28;20672;-45
2021/01/09 04:52:05;;;;;;;11.53;7.93;;;1.50;99.90;;;;;;5011780;28;20216;-53
2021/01/09 04:54:34;;;;;;;12.90;8.33;;;1.50;99.90;;;;;;5024519;28;20264;-49
2021/01/09 04:57:00;;;;;;;12.10;7.30;;;1.50;99.90;;;;;;5024593;28;20621;-52
2021/01/09 04:59:25;;;;;;;12.23;7.60;;;1.50;99.90;;;;;;5023598;28;20247;-46
2021/01/09 05:01:52;;;;;;;13.30;8.03;;;1.40;99.90;;;;;;5020842;28;20235;-49
2021/01/09 05:04:18;;;;;;;10.80;7.43;;;1.40;99.90;;;;;;5021903;28;20883;-45
2021/01/09 05:06:45;;;;;;;13.83;8.37;;;1.40;99.90;;;;;;5009824;28;20576;-44
2021/01/09 05:09:12;;;;;;;10.77;8.10;;;1.50;99.90;;;;;;5022048;28;20529;-51
2021/01/09 05:11:40;;;;;;;13.30;9.03;;;1.40;99.90;;;;;;5025764;28;20228;-44
2021/01/09 05:14:06;;;;;;;12.27;8.13;;;1.50;99.90;;;;;;5022946;28;20215;-51
2021/01/09 05:16:36;;;;;;;12.37;8.63;;;1.50;99.90;;;;;;5020601;28;20354;-46
2021/01/09 05:19:03;;;;;;;12.87;8.47;;;1.40;99.90;;;;;;5022420;28;20671;-49
2021/01/09 05:21:30;;;;;;;13.43;8.17;;;1.40;99.90;;;;;;5011822;28;20212;-43
2021/01/09 05:24:09;;;;;;;14.67;7.90;;;1.40;99.90;;;;;;5024861;28;20173;-51
2021/01/09 05:26:38;;;;;;;13.47;8.37;;;1.40;99.90;;;;;;5025140;28;20254;-43
2021/01/09 05:29:05;;;;;;;12.70;8.17;;;1.40;99.90;;;;;;5015407;28;20180;-45
2021/01/09 05:31:35;;;;;;;14.47;8.10;;;1.40;99.90;;;;;;5022086;28;20192;-52
2021/01/09 05:34:00;;;;;;;10.33;7.27;;;1.40;99.90;;;;;;5022971;28;20222;-45
2021/01/09 05:36:26;;;;;;;12.70;8.87;;;1.30;99.90;;;;;;5009427;28;20239;-53
2021/01/09 05:38:52;;;;;;;11.13;8.00;;;1.30;99.90;;;;;;5018080;28;20185;-49
2021/01/09 05:41:21;;;;;;;14.60;8.13;;;1.30;99.90;;;;;;5010828;28;20196;-45
2021/01/09 05:43:58;;;;;;;12.63;9.20;;;1.30;99.90;;;;;;5019754;28;20199;-54
2021/01/09 05:46:24;;;;;;;12.83;8.50;;;1.30;99.90;;;;;;5020274;28;20227;-43
2021/01/09 05:48:51;;;;;;;12.67;8.77;;;1.30;99.90;;;;;;5019305;28;20199;-52
2021/01/09 05:51:17;;;;;;;12.77;8.50;;;1.30;99.90;;;;;;5022055;28;20476;-49
2021/01/09 05:53:45;;;;;;;10.73;7.67;;;1.30;99.90;;;;;;5013546;28;20260;-43
2021/01/09 05:56:12;;;;;;;14.27;9.27;;;1.30;99.90;;;;;;5020734;28;20464;-46
2021/01/09 05:58:38;;;;;;;15.53;9.53;;;1.30;99.90;;;;;;5021550;28;20221;-47
2021/01/09 06:01:09;;;;;;;13.67;8.70;;;1.30;99.90;;;;;;5017873;28;20180;-51
2021/01/09 06:03:43;;;;;;;14.43;8.60;;;1.30;99.90;;;;;;5021000;28;20191;-47
2021/01/09 06:06:32;;;;;;;10.83;7.93;;;1.30;99.90;;;;;;5020806;28;20860;-48
2021/01/09 06:09:03;;;;;;;14.87;8.80;;;1.30;99.90;;;;;;4999774;28;20573;-53
2021/01/09 06:11:31;;;;;;;14.40;8.47;;;1.30;99.90;;;;;;5022210;28;20675;-43
2021/01/09 06:14:01;;;;;;;15.77;8.20;;;1.30;99.90;;;;;;5012817;28;20199;-51
2021/01/09 06:16:31;;;;;;;13.67;8.87;;;1.30;99.90;;;;;;5020547;28;20803;-44
2021/01/09 06:18:58;;;;;;;14.77;8.77;;;1.30;99.90;;;;;;5017823;28;20682;-51
2021/01/09 06:21:25;;;;;;;12.47;8.43;;;1.30;99.90;;;;;;5022961;28;20482;-44
2021/01/09 06:23:53;;;;;;;15.30;8.73;;;1.20;99.90;;;;;;5014482;28;20218;-53
2021/01/09 06:26:19;;;;;;;12.70;8.73;;;1.20;99.90;;;;;;5013863;28;20194;-44
2021/01/09 06:28:57;;;;;;;11.47;7.53;;;1.20;99.90;;;;;;5027755;28;20275;-44
2021/01/09 06:31:25;;;;;;;12.07;7.43;;;1.20;99.90;;;;;;5019608;28;20219;-43
2021/01/09 06:33:52;;;;;;;14.33;8.07;;;1.20;99.90;;;;;;5043108;28;20172;-51
2021/01/09 06:36:19;;;;;;;13.37;8.13;;;1.20;99.90;;;;;;5028500;28;20187;-44
2021/01/09 06:38:51;;;;;;;12.70;7.33;;;1.10;99.90;;;;;;5016489;28;20266;-54
2021/01/09 06:41:20;;;;;;;12.83;8.27;;;1.10;99.90;;;;;;5003328;28;20922;-43
2021/01/09 06:43:51;;;;;;;11.70;8.23;;;1.10;99.90;;;;;;5016695;28;20265;-54
2021/01/09 06:46:31;;;;;;;13.80;8.10;;;1.10;99.90;;;;;;5017307;28;20195;-44
2021/01/09 06:48:57;;;;;;;10.77;7.10;;;1.00;99.90;;;;;;5014923;28;20199;-52
2021/01/09 06:51:35;;;;;;;15.07;8.90;;;1.00;99.90;;;;;;5019807;28;20218;-43
2021/01/09 06:54:15;;;;;;;12.43;8.20;;;1.00;99.90;;;;;;5020046;28;20209;-46
2021/01/09 06:56:49;;;;;;;11.23;7.33;;;1.10;99.90;;;;;;5011705;28;20249;-52
2021/01/09 06:59:38;;;;;;;14.20;8.10;;;1.00;99.90;;;;;;5008622;28;20647;-53
2021/01/09 07:02:11;;;;;;;12.80;8.07;;;1.10;99.90;;;;;;5015828;28;20218;-51
2021/01/09 07:05:06;;;;;;;13.77;8.30;;;1.00;99.90;;;;;;5020325;28;20293;-47
2021/01/09 07:07:54;;;;;;;15.17;8.30;;;1.10;99.90;;;;;;5017678;28;20202;-44
2021/01/09 07:10:29;;;;;;;13.87;8.17;;;1.10;99.90;;;;;;5013949;28;20241;-43
2021/01/09 07:12:58;;;;;;;12.47;7.43;;;1.10;99.90;;;;;;5011768;28;20223;-48
2021/01/09 07:15:26;;;;;;;14.63;8.90;;;1.00;99.90;;;;;;5011392;28;20207;-46
2021/01/09 07:18:00;;;;;;;12.80;8.23;;;1.00;99.90;;;;;;5023817;28;20179;-44
2021/01/09 07:20:45;;;;;;;14.10;8.13;;;1.00;99.90;;;;;;5016105;28;20281;-46
2021/01/09 07:23:15;;;;;;;16.33;9.07;;;1.00;99.90;;;;;;5017143;28;20214;-52
2021/01/09 07:25:44;;;;;;;14.13;8.47;;;1.00;99.90;;;;;;5022573;28;20274;-48
2021/01/09 07:28:17;;;;;;;13.00;7.80;;;1.00;99.90;;;;;;5009465;28;20195;-49
2021/01/09 07:30:44;;;;;;;14.97;8.73;;;1.10;99.90;;;;;;5018357;28;20213;-44
2021/01/09 07:33:12;;;;;;;12.30;7.67;;;1.10;99.90;;;;;;5020305;28;20640;-50
2021/01/09 07:35:41;;;;;;;13.07;7.80;;;1.10;99.90;;;;;;5019691;28;20914;-47
2021/01/09 07:38:07;;;;;;;14.37;8.47;;;1.00;99.90;;;;;;5017787;28;20550;-53
2021/01/09 07:40:46;;;;;;;13.07;8.53;;;1.00;99.90;;;;;;5020917;28;20881;-44
2021/01/09 07:43:33;;;;;;;13.53;8.03;;;1.00;99.90;;;;;;5004014;28;20215;-54
2021/01/09 07:45:59;;;;;;;13.77;8.23;;;1.10;99.90;;;;;;5008283;28;20202;-52
2021/01/09 07:48:33;;;;;;;13.93;8.10;;;1.10;99.90;;;;;;5028612;28;20199;-44
2021/01/09 07:50:59;;;;;;;14.40;7.83;;;1.10;99.90;;;;;;5011612;28;20198;-50
2021/01/09 07:53:28;;;;;;;12.83;7.87;;;1.10;99.90;;;;;;5005406;28;20199;-44
2021/01/09 07:55:54;;;;;;;14.67;8.50;;;1.10;99.90;;;;;;5020015;28;20210;-52
2021/01/09 07:58:43;;;;;;;15.60;8.40;;;1.10;99.90;;;;;;5010740;28;20226;-49
2021/01/09 08:01:09;;;;;;;13.67;8.27;;;1.20;99.90;;;;;;5015410;28;20899;-46
2021/01/09 08:03:35;;;;;;;15.10;8.33;;;1.20;99.90;;;;;;5023470;28;20183;-44
2021/01/09 08:06:02;;;;;;;13.90;8.30;;;1.20;99.90;;;;;;5010399;28;20195;-44
2021/01/09 08:08:28;;;;;;;14.87;8.80;;;1.20;99.90;;;;;;5023025;28;20654;-45
2021/01/09 08:10:53;;;;;;;13.47;8.43;;;1.20;99.90;;;;;;5023912;28;20275;-52
2021/01/09 08:13:21;;;;;;;15.20;9.17;;;1.20;99.90;;;;;;5013862;28;20660;-45
2021/01/09 08:15:47;;;;;;;13.77;8.33;;;1.20;99.90;;;;;;5025223;28;20207;-53
2021/01/09 08:18:12;;;;;;;14.00;8.73;;;1.20;99.90;;;;;;5016158;28;20191;-47
2021/01/09 08:20:38;;;;;;;15.00;8.53;;;1.20;99.90;;;;;;5016603;28;20192;-44
2021/01/09 08:23:05;;;;;;;14.80;8.07;;;1.20;99.90;;;;;;5014244;28;20290;-44
2021/01/09 08:25:36;;;;;;;15.77;9.17;;;1.20;99.90;;;;;;5026717;28;20733;-45
2021/01/09 08:28:03;;;;;;;13.43;8.43;;;1.20;99.90;;;;;;5011117;28;20992;-44
2021/01/09 08:30:30;;;;;;;13.47;8.67;;;1.20;99.90;;;;;;5026047;28;20652;-46
2021/01/09 08:33:09;;;;;;;16.23;8.33;;;1.20;99.90;;;;;;5019436;28;20604;-54
2021/01/09 08:35:40;;;;;;;16.90;8.60;;;1.20;99.90;;;;;;5020913;28;20256;-47
2021/01/09 08:38:06;;;;;;;13.70;9.00;;;1.20;99.90;;;;;;5032874;28;20187;-52
2021/01/09 08:40:32;;;;;;;14.83;8.70;;;1.20;99.90;;;;;;5028168;28;20247;-44
2021/01/09 08:43:06;;;;;;;14.13;8.67;;;1.20;99.90;;;;;;5015290;28;20203;-51
2021/01/09 08:45:44;;;;;;;16.47;8.97;;;1.20;99.90;;;;;;5014268;28;20637;-46
2021/01/09 08:48:23;;;;;;;14.83;8.17;;;1.20;99.90;;;;;;5015593;28;20194;-45
2021/01/09 08:51:03;;;;;;;13.83;8.57;;;1.20;99.90;;;;;;5021750;28;20595;-50
2021/01/09 08:53:53;;;;;;;14.57;8.13;;;1.20;99.90;;;;;;5020010;28;20186;-44
2021/01/09 08:56:20;;;;;;;16.43;9.67;;;1.30;99.90;;;;;;5026273;28;20211;-44
2021/01/09 08:58:46;;;;;;;12.87;8.70;;;1.30;99.90;;;;;;5024000;28;20670;-50
2021/01/09 09:01:14;;;;;;;13.67;8.80;;;1.20;99.90;;;;;;4996583;28;20887;-47
2021/01/09 09:03:49;;;;;;;12.50;8.43;;;1.30;99.90;;;;;;5018207;28;20195;-52
2021/01/09 09:06:16;;;;;;;15.33;9.30;;;1.30;99.90;;;;;;5026391;28;20210;-44
2021/01/09 09:08:42;;;;;;;18.03;9.37;;;1.30;99.90;;;;;;5020858;28;20194;-52
2021/01/09 09:11:08;;;;;;;14.90;8.73;;;1.30;99.90;;;;;;5014311;28;20895;-45
2021/01/09 09:13:34;;;;;;;15.27;9.30;;;1.30;99.90;;;;;;5025860;28;20184;-49
2021/01/09 09:16:16;;;;;;;14.23;8.83;;;1.30;99.90;;;;;;5009455;28;20242;-49
2021/01/09 09:18:42;;;;;;;14.97;8.53;;;1.30;99.90;;;;;;5025018;28;20578;-53
2021/01/09 09:21:09;;;;;;;16.20;9.73;;;1.30;99.90;;;;;;5017567;28;20170;-44
2021/01/09 09:23:36;;;;;;;15.77;9.47;;;1.40;99.90;;;;;;5021812;28;20218;-51
2021/01/09 09:26:13;;;;;;;16.67;8.27;;;1.40;99.90;;;;;;5017427;28;20164;-47
2021/01/09 09:28:50;;;;;;;14.57;8.90;;;1.30;99.90;;;;;;5025537;28;20232;-51
2021/01/09 09:31:30;;;;;;;15.57;7.97;;;1.40;99.90;;;;;;5012251;28;20329;-45
2021/01/09 09:34:02;;;;;;;13.60;8.07;;;1.40;99.90;;;;;;5013928;28;20310;-54
2021/01/09 09:36:28;;;;;;;14.10;8.20;;;1.40;99.90;;;;;;5029202;28;20237;-44
2021/01/09 09:38:54;;;;;;;14.67;9.03;;;1.40;99.90;;;;;;5026718;28;20194;-54
2021/01/09 09:41:19;;;;;;;16.30;8.47;;;1.40;99.90;;;;;;5038045;28;20207;-45
2021/01/09 09:43:58;;;;;;;17.70;9.60;;;1.40;99.90;;;;;;5044095;28;20174;-52
2021/01/09 09:46:25;;;;;;;16.43;8.67;;;1.40;99.90;;;;;;5019466;28;20301;-44
2021/01/09 09:48:51;;;;;;;17.27;9.10;;;1.40;99.90;;;;;;5022801;28;20179;-51
2021/01/09 09:51:17;;;;;;;18.37;9.70;;;1.40;99.90;;;;;;5018151;28;20222;-44
2021/01/09 09:53:56;;;;;;;15.73;9.40;;;1.40;99.90;;;;;;5003333;28;20308;-50
2021/01/09 09:56:23;;;;;;;16.43;9.13;;;1.40;99.90;;;;;;5020137;28;20217;-51
2021/01/09 09:59:00;;;;;;;16.80;9.10;;;1.40;99.90;;;;;;5025452;28;20722;-53
2021/01/09 10:01:27;;;;;;;17.73;8.77;;;1.40;99.90;;;;;;5017538;28;20599;-45
2021/01/09 10:03:52;;;;;;;16.20;9.30;;;1.40;99.90;;;;;;5010130;28;20575;-52
2021/01/09 10:06:18;;;;;;;16.07;9.03;;;1.40;99.90;;;;;;5019637;28;20210;-44
2021/01/09 10:08:44;;;;;;;16.70;9.03;;;1.40;99.90;;;;;;5022812;28;20195;-54
2021/01/09 10:11:10;;;;;;;15.33;8.03;;;1.40;99.90;;;;;;5016355;28;20214;-50
2021/01/09 10:13:36;;;;;;;14.30;7.97;;;1.40;99.90;;;;;;5005962;28;20195;-47
2021/01/09 10:16:03;;;;;;;16.37;9.47;;;1.40;99.90;;;;;;5029443;28;20273;-49
2021/01/09 10:18:30;;;;;;;15.90;9.20;;;1.40;99.90;;;;;;5012282;28;20195;-45
2021/01/09 10:20:57;;;;;;;15.00;7.70;;;1.40;99.90;;;;;;5020061;28;20198;-54
2021/01/09 10:23:23;;;;;;;15.83;8.50;;;1.40;99.90;;;;;;5022843;28;20179;-47
2021/01/09 10:25:49;;;;;;;17.53;9.30;;;1.40;99.90;;;;;;5020411;28;20214;-53
2021/01/09 10:28:15;;;;;;;12.77;7.57;;;1.40;99.90;;;;;;5020177;28;20195;-46
2021/01/09 10:30:40;;;;;;;18.80;8.50;;;1.40;99.90;;;;;;5018021;28;20191;-54
2021/01/09 10:33:07;;;;;;;15.33;8.80;;;1.40;99.90;;;;;;5007015;28;20325;-47
2021/01/09 10:35:32;;;;;;;16.87;8.93;;;1.40;99.90;;;;;;5022273;28;20213;-48
2021/01/09 10:37:58;;;;;;;17.43;8.90;;;1.50;99.90;;;;;;5018276;28;20164;-54
2021/01/09 10:40:23;;;;;;;17.33;8.73;;;1.40;99.90;;;;;;5024112;28;20183;-45
2021/01/09 10:42:49;;;;;;;17.37;8.93;;;1.40;99.90;;;;;;5022207;28;20196;-51
2021/01/09 10:45:15;;;;;;;16.43;8.50;;;1.40;99.90;;;;;;5016853;28;20192;-48
2021/01/09 10:47:42;;;;;;;18.50;9.43;;;1.40;99.90;;;;;;5021588;28;20191;-57
2021/01/09 10:50:09;;;;;;;18.87;9.57;;;1.40;99.90;;;;;;5011144;28;20278;-45
2021/01/09 10:52:34;;;;;;;14.63;8.73;;;1.40;99.90;;;;;;5023911;28;20196;-45
2021/01/09 10:55:01;;;;;;;16.67;9.20;;;1.40;99.90;;;;;;5019318;28;20895;-45
2021/01/09 10:57:27;;;;;;;19.17;9.73;;;1.50;99.90;;;;;;5024311;28;20259;-49
2021/01/09 10:59:52;;;;;;;16.63;8.37;;;1.50;99.90;;;;;;5018694;28;20263;-54
2021/01/09 11:02:18;;;;;;;15.43;9.50;;;1.50;99.90;;;;;;5021014;28;20208;-48
2021/01/09 11:04:43;;;;;;;16.23;10.00;;;1.50;99.90;;;;;;5010981;28;20195;-54
2021/01/09 11:07:09;;;;;;;18.37;9.60;;;1.60;99.90;;;;;;5020943;28;20176;-45
2021/01/09 11:09:34;;;;;;;19.07;9.63;;;1.50;99.90;;;;;;5023179;28;20603;-46
2021/01/09 11:12:00;;;;;;;14.50;8.43;;;1.60;99.90;;;;;;5019654;28;20200;-48
2021/01/09 11:14:26;;;;;;;16.17;8.57;;;1.60;99.90;;;;;;5023892;28;20298;-48
2021/01/09 11:17:01;;;;;;;16.93;8.73;;;1.60;99.90;;;;;;5016320;28;20188;-56
2021/01/09 11:19:27;;;;;;;18.50;10.23;;;1.60;99.90;;;;;;5023634;28;20176;-49
2021/01/09 11:22:00;;;;;;;17.27;9.27;;;1.60;99.90;;;;;;5008883;28;20573;-54
2021/01/09 11:24:30;;;;;;;14.77;8.67;;;1.60;99.90;;;;;;5023544;28;20211;-50
2021/01/09 11:27:04;;;;;;;15.93;8.43;;;1.60;99.90;;;;;;5020135;28;20180;-57
2021/01/09 11:29:30;;;;;;;15.93;8.97;;;1.60;99.90;;;;;;5023303;28;20183;-51
2021/01/09 11:32:00;;;;;;;17.23;9.50;;;1.70;99.90;;;;;;5004938;28;20207;-48
2021/01/09 11:34:26;;;;;;;18.17;9.80;;;1.70;99.90;;;;;;5023361;28;20203;-46
2021/01/09 11:36:52;;;;;;;16.43;9.40;;;1.60;99.90;;;;;;5007410;28;20188;-49
2021/01/09 11:39:18;;;;;;;14.90;8.27;;;1.60;99.90;;;;;;5025814;28;20549;-50
2021/01/09 11:41:43;;;;;;;16.57;9.03;;;1.60;99.90;;;;;;5026869;28;20199;-59
2021/01/09 11:44:09;;;;;;;12.57;7.97;;;1.60;99.90;;;;;;5028688;28;20264;-51
2021/01/09 11:46:34;;;;;;;17.87;8.97;;;1.60;99.90;;;;;;5024481;28;20189;-56
2021/01/09 11:49:00;;;;;;;18.47;9.60;;;1.60;99.90;;;;;;5027158;28;20168;-47
2021/01/09 11:51:26;;;;;;;15.80;9.27;;;1.60;99.90;;;;;;5029507;28;20199;-48
2021/01/09 11:53:52;;;;;;;15.70;9.20;;;1.70;99.90;;;;;;5013316;28;20176;-50
2021/01/09 11:56:22;;;;;;;16.13;8.67;;;1.70;99.90;;;;;;5029969;28;20222;-48
2021/01/09 11:58:47;;;;;;;17.43;8.73;;;1.70;99.90;;;;;;5018427;28;20187;-49
2021/01/09 12:01:14;;;;;;;14.30;8.53;;;1.80;99.90;;;;;;5025130;28;20714;-56
2021/01/09 12:03:39;;;;;;;16.83;8.77;;;1.80;99.90;;;;;;5020796;28;21981;-52
2021/01/09 12:06:05;;;;;;;15.93;9.13;;;1.80;99.90;;;;;;5029511;28;20180;-58
2021/01/09 12:08:31;;;;;;;14.13;7.97;;;1.80;99.90;;;;;;5013348;28;20302;-51
2021/01/09 12:10:56;;;;;;;12.87;7.97;;;1.80;99.90;;;;;;5029542;28;20175;-46
2021/01/09 12:13:22;;;;;;;14.17;9.20;;;1.80;99.90;;;;;;5025200;28;20190;-55
2021/01/09 12:15:48;;;;;;;15.03;8.53;;;1.80;99.90;;;;;;5028478;28;20207;-50
2021/01/09 12:18:14;;;;;;;15.80;8.63;;;1.70;99.90;;;;;;5023420;28;20188;-56
2021/01/09 12:20:40;;;;;;;14.87;8.40;;;1.70;99.90;;;;;;5021964;28;20187;-52
2021/01/09 12:23:05;;;;;;;11.63;7.93;;;1.80;99.90;;;;;;5017299;28;20211;-57
2021/01/09 12:25:31;;;;;;;14.00;8.03;;;1.80;99.90;;;;;;5025232;28;20184;-50
2021/01/09 12:27:56;;;;;;;17.13;9.47;;;1.80;99.90;;;;;;5029427;28;20271;-48
2021/01/09 12:30:22;;;;;;;18.83;11.03;;;1.80;99.90;;;;;;5024174;28;20262;-56
2021/01/09 12:32:48;;;;;;;16.03;10.37;;;1.70;99.90;;;;;;5023727;28;20537;-51
2021/01/09 12:35:13;;;;;;;22.37;12.07;;;1.70;99.90;;;;;;5023308;28;20223;-55
2021/01/09 12:37:39;;;;;;;23.23;13.07;;;1.70;99.90;;;;;;5015321;28;20191;-48
2021/01/09 12:40:06;;;;;;;21.60;12.60;;;1.80;99.90;;;;;;5028565;28;20507;-55
2021/01/09 12:42:32;;;;;;;20.73;11.97;;;1.80;99.90;;;;;;5024922;28;20195;-51
2021/01/09 12:44:57;;;;;;;23.17;11.73;;;1.80;99.90;;;;;;5029191;28;20530;-48
2021/01/09 12:47:23;;;;;;;21.53;12.47;;;1.90;99.90;;;;;;5020069;28;20190;-52
2021/01/09 12:49:48;;;;;;;24.20;13.20;;;1.90;99.90;;;;;;5027239;28;20176;-46